sensor_id;sensor_type;location;lat;lon;timestamp;P1;durP1;ratioP1;P2;durP2;ratioP2
74945;SDS011;63509;45.250;38.102;2023-01-20T00:01:00;25.63;;;13.60;;
74945;SDS011;63509;45.250;38.102;2023-01-20T00:03:27;35.00;;;12.48;;
74945;SDS011;63509;45.250;38.102;2023-01-20T00:05:52;29.75;;;12.32;;
74945;SDS011;63509;45.250;38.102;2023-01-20T00:08:18;31.02;;;12.18;;
74945;SDS011;63509;45.250;38.102;2023-01-20T00:10:44;24.63;;;11.88;;
74945;SDS011;63509;45.250;38.102;2023-01-20T00:13:11;29.05;;;12.77;;
74945;SDS011;63509;45.250;38.102;2023-01-20T00:15:37;29.17;;;12.25;;
74945;SDS011;63509;45.250;38.102;2023-01-20T00:18:03;29.85;;;11.75;;
74945;SDS011;63509;45.250;38.102;2023-01-20T00:20:29;28.48;;;11.57;;
74945;SDS011;63509;45.250;38.102;2023-01-20T00:22:55;28.38;;;11.50;;
74945;SDS011;63509;45.250;38.102;2023-01-20T00:25:20;28.67;;;11.85;;
74945;SDS011;63509;45.250;38.102;2023-01-20T00:27:46;26.58;;;10.95;;
74945;SDS011;63509;45.250;38.102;2023-01-20T00:30:12;35.38;;;12.68;;
74945;SDS011;63509;45.250;38.102;2023-01-20T00:32:40;29.60;;;11.60;;
74945;SDS011;63509;45.250;38.102;2023-01-20T00:35:10;32.35;;;11.63;;
74945;SDS011;63509;45.250;38.102;2023-01-20T00:37:36;26.08;;;12.25;;
74945;SDS011;63509;45.250;38.102;2023-01-20T00:40:03;26.80;;;10.70;;
74945;SDS011;63509;45.250;38.102;2023-01-20T00:42:29;32.63;;;12.18;;
74945;SDS011;63509;45.250;38.102;2023-01-20T00:44:56;31.58;;;11.75;;
74945;SDS011;63509;45.250;38.102;2023-01-20T00:47:22;31.35;;;10.43;;
74945;SDS011;63509;45.250;38.102;2023-01-20T00:49:48;27.02;;;10.75;;
74945;SDS011;63509;45.250;38.102;2023-01-20T00:52:14;30.52;;;11.27;;
74945;SDS011;63509;45.250;38.102;2023-01-20T00:54:43;24.42;;;11.10;;
74945;SDS011;63509;45.250;38.102;2023-01-20T00:57:10;31.65;;;11.93;;
74945;SDS011;63509;45.250;38.102;2023-01-20T00:59:37;29.73;;;12.02;;
74945;SDS011;63509;45.250;38.102;2023-01-20T01:02:03;27.65;;;11.23;;
74945;SDS011;63509;45.250;38.102;2023-01-20T01:04:29;27.13;;;11.13;;
74945;SDS011;63509;45.250;38.102;2023-01-20T01:06:55;21.67;;;11.10;;
74945;SDS011;63509;45.250;38.102;2023-01-20T01:09:21;26.10;;;12.10;;
74945;SDS011;63509;45.250;38.102;2023-01-20T01:11:47;27.58;;;11.90;;
74945;SDS011;63509;45.250;38.102;2023-01-20T01:14:14;25.02;;;10.98;;
74945;SDS011;63509;45.250;38.102;2023-01-20T01:16:40;25.15;;;10.05;;
74945;SDS011;63509;45.250;38.102;2023-01-20T01:19:06;21.70;;;10.13;;
74945;SDS011;63509;45.250;38.102;2023-01-20T01:21:32;23.08;;;10.95;;
74945;SDS011;63509;45.250;38.102;2023-01-20T01:23:58;21.30;;;8.82;;
74945;SDS011;63509;45.250;38.102;2023-01-20T01:26:24;27.92;;;11.20;;
74945;SDS011;63509;45.250;38.102;2023-01-20T01:28:50;28.35;;;10.57;;
74945;SDS011;63509;45.250;38.102;2023-01-20T01:31:17;21.90;;;9.38;;
74945;SDS011;63509;45.250;38.102;2023-01-20T01:33:46;21.98;;;10.10;;
74945;SDS011;63509;45.250;38.102;2023-01-20T01:36:13;25.42;;;10.10;;
74945;SDS011;63509;45.250;38.102;2023-01-20T01:38:41;34.08;;;10.80;;
74945;SDS011;63509;45.250;38.102;2023-01-20T01:41:08;20.52;;;8.82;;
74945;SDS011;63509;45.250;38.102;2023-01-20T01:43:36;28.58;;;10.98;;
74945;SDS011;63509;45.250;38.102;2023-01-20T01:46:04;20.05;;;9.88;;
74945;SDS011;63509;45.250;38.102;2023-01-20T01:48:32;24.85;;;9.93;;
74945;SDS011;63509;45.250;38.102;2023-01-20T01:51:10;28.90;;;10.60;;
74945;SDS011;63509;45.250;38.102;2023-01-20T01:53:43;27.88;;;11.23;;
74945;SDS011;63509;45.250;38.102;2023-01-20T01:56:12;22.95;;;10.15;;
74945;SDS011;63509;45.250;38.102;2023-01-20T01:58:41;27.92;;;10.85;;
74945;SDS011;63509;45.250;38.102;2023-01-20T02:01:10;25.42;;;10.65;;
74945;SDS011;63509;45.250;38.102;2023-01-20T02:03:39;27.23;;;9.80;;
74945;SDS011;63509;45.250;38.102;2023-01-20T02:06:19;22.95;;;10.05;;
74945;SDS011;63509;45.250;38.102;2023-01-20T02:08:47;32.42;;;12.15;;
74945;SDS011;63509;45.250;38.102;2023-01-20T02:11:13;25.02;;;9.40;;
74945;SDS011;63509;45.250;38.102;2023-01-20T02:13:39;21.98;;;10.13;;
74945;SDS011;63509;45.250;38.102;2023-01-20T02:33:12;26.58;;;12.13;;
74945;SDS011;63509;45.250;38.102;2023-01-20T02:35:52;29.10;;;11.90;;
74945;SDS011;63509;45.250;38.102;2023-01-20T02:41:06;29.35;;;11.50;;
74945;SDS011;63509;45.250;38.102;2023-01-20T02:44:02;23.33;;;10.30;;
74945;SDS011;63509;45.250;38.102;2023-01-20T02:47:00;30.67;;;9.93;;
74945;SDS011;63509;45.250;38.102;2023-01-20T02:49:39;27.23;;;10.38;;
74945;SDS011;63509;45.250;38.102;2023-01-20T02:52:15;28.80;;;11.40;;
74945;SDS011;63509;45.250;38.102;2023-01-20T02:54:46;31.15;;;11.45;;
74945;SDS011;63509;45.250;38.102;2023-01-20T02:57:15;26.52;;;10.20;;
74945;SDS011;63509;45.250;38.102;2023-01-20T02:59:47;22.58;;;10.60;;
74945;SDS011;63509;45.250;38.102;2023-01-20T03:02:18;25.88;;;10.40;;
74945;SDS011;63509;45.250;38.102;2023-01-20T03:04:49;27.38;;;10.63;;
74945;SDS011;63509;45.250;38.102;2023-01-20T03:07:20;31.40;;;11.05;;
74945;SDS011;63509;45.250;38.102;2023-01-20T03:09:50;30.23;;;10.77;;
74945;SDS011;63509;45.250;38.102;2023-01-20T03:12:26;26.77;;;12.38;;
74945;SDS011;63509;45.250;38.102;2023-01-20T03:15:14;23.58;;;10.38;;
74945;SDS011;63509;45.250;38.102;2023-01-20T03:17:40;28.17;;;10.70;;
74945;SDS011;63509;45.250;38.102;2023-01-20T03:20:07;27.27;;;11.65;;
74945;SDS011;63509;45.250;38.102;2023-01-20T03:22:33;28.05;;;11.32;;
74945;SDS011;63509;45.250;38.102;2023-01-20T03:24:59;30.95;;;10.77;;
74945;SDS011;63509;45.250;38.102;2023-01-20T03:27:25;30.98;;;11.75;;
74945;SDS011;63509;45.250;38.102;2023-01-20T03:29:51;24.08;;;10.25;;
74945;SDS011;63509;45.250;38.102;2023-01-20T03:32:17;30.75;;;12.85;;
74945;SDS011;63509;45.250;38.102;2023-01-20T03:34:50;25.30;;;10.40;;
74945;SDS011;63509;45.250;38.102;2023-01-20T03:37:17;33.35;;;10.95;;
74945;SDS011;63509;45.250;38.102;2023-01-20T03:39:44;36.28;;;13.13;;
74945;SDS011;63509;45.250;38.102;2023-01-20T03:53:34;36.67;;;12.68;;
74945;SDS011;63509;45.250;38.102;2023-01-20T03:59:02;27.70;;;12.23;;
74945;SDS011;63509;45.250;38.102;2023-01-20T04:01:33;25.40;;;11.82;;
74945;SDS011;63509;45.250;38.102;2023-01-20T04:04:02;26.15;;;11.65;;
74945;SDS011;63509;45.250;38.102;2023-01-20T04:06:29;29.02;;;11.25;;
74945;SDS011;63509;45.250;38.102;2023-01-20T04:08:58;30.65;;;12.43;;
74945;SDS011;63509;45.250;38.102;2023-01-20T04:11:27;32.17;;;10.75;;
74945;SDS011;63509;45.250;38.102;2023-01-20T04:13:53;32.50;;;11.02;;
74945;SDS011;63509;45.250;38.102;2023-01-20T04:16:19;34.83;;;11.43;;
74945;SDS011;63509;45.250;38.102;2023-01-20T04:18:47;35.22;;;13.88;;
74945;SDS011;63509;45.250;38.102;2023-01-20T04:21:38;31.10;;;13.05;;
74945;SDS011;63509;45.250;38.102;2023-01-20T04:24:19;31.27;;;12.77;;
74945;SDS011;63509;45.250;38.102;2023-01-20T04:27:12;27.90;;;12.30;;
74945;SDS011;63509;45.250;38.102;2023-01-20T04:29:38;31.25;;;13.02;;
74945;SDS011;63509;45.250;38.102;2023-01-20T04:32:06;39.45;;;12.15;;
74945;SDS011;63509;45.250;38.102;2023-01-20T04:34:32;31.67;;;12.23;;
74945;SDS011;63509;45.250;38.102;2023-01-20T04:36:58;34.42;;;11.75;;
74945;SDS011;63509;45.250;38.102;2023-01-20T04:39:24;33.30;;;13.25;;
74945;SDS011;63509;45.250;38.102;2023-01-20T04:41:50;29.92;;;12.05;;
74945;SDS011;63509;45.250;38.102;2023-01-20T04:44:15;39.50;;;13.23;;
74945;SDS011;63509;45.250;38.102;2023-01-20T04:46:42;25.02;;;11.15;;
74945;SDS011;63509;45.250;38.102;2023-01-20T04:49:08;35.30;;;13.20;;
74945;SDS011;63509;45.250;38.102;2023-01-20T04:51:35;39.72;;;12.93;;
74945;SDS011;63509;45.250;38.102;2023-01-20T04:54:01;33.88;;;12.95;;
74945;SDS011;63509;45.250;38.102;2023-01-20T04:56:27;30.08;;;12.63;;
74945;SDS011;63509;45.250;38.102;2023-01-20T04:58:53;46.15;;;14.63;;
74945;SDS011;63509;45.250;38.102;2023-01-20T05:01:20;32.42;;;12.82;;
74945;SDS011;63509;45.250;38.102;2023-01-20T05:03:46;27.80;;;11.57;;
74945;SDS011;63509;45.250;38.102;2023-01-20T05:06:12;36.90;;;13.57;;
74945;SDS011;63509;45.250;38.102;2023-01-20T05:08:38;48.30;;;13.45;;
74945;SDS011;63509;45.250;38.102;2023-01-20T05:11:04;26.33;;;12.75;;
74945;SDS011;63509;45.250;38.102;2023-01-20T05:13:30;38.00;;;14.05;;
74945;SDS011;63509;45.250;38.102;2023-01-20T05:15:56;37.72;;;11.75;;
74945;SDS011;63509;45.250;38.102;2023-01-20T05:18:22;41.47;;;14.90;;
74945;SDS011;63509;45.250;38.102;2023-01-20T05:20:49;38.15;;;13.23;;
74945;SDS011;63509;45.250;38.102;2023-01-20T05:23:15;34.78;;;11.32;;
74945;SDS011;63509;45.250;38.102;2023-01-20T05:25:41;32.60;;;13.43;;
74945;SDS011;63509;45.250;38.102;2023-01-20T05:28:14;37.78;;;12.70;;
74945;SDS011;63509;45.250;38.102;2023-01-20T05:30:39;41.28;;;13.95;;
74945;SDS011;63509;45.250;38.102;2023-01-20T05:33:05;38.20;;;13.10;;
74945;SDS011;63509;45.250;38.102;2023-01-20T05:35:31;37.45;;;12.48;;
74945;SDS011;63509;45.250;38.102;2023-01-20T05:37:57;36.60;;;12.57;;
74945;SDS011;63509;45.250;38.102;2023-01-20T05:40:23;32.38;;;13.32;;
74945;SDS011;63509;45.250;38.102;2023-01-20T05:42:49;32.30;;;11.60;;
74945;SDS011;63509;45.250;38.102;2023-01-20T05:45:15;36.28;;;13.40;;
74945;SDS011;63509;45.250;38.102;2023-01-20T05:47:41;31.15;;;13.45;;
74945;SDS011;63509;45.250;38.102;2023-01-20T05:50:07;34.28;;;13.63;;
74945;SDS011;63509;45.250;38.102;2023-01-20T05:52:34;48.05;;;13.23;;
74945;SDS011;63509;45.250;38.102;2023-01-20T05:55:00;59.60;;;15.23;;
74945;SDS011;63509;45.250;38.102;2023-01-20T05:57:26;35.22;;;14.48;;
74945;SDS011;63509;45.250;38.102;2023-01-20T05:59:52;36.33;;;12.68;;
74945;SDS011;63509;45.250;38.102;2023-01-20T06:02:20;42.17;;;14.75;;
74945;SDS011;63509;45.250;38.102;2023-01-20T06:04:47;49.85;;;14.70;;
74945;SDS011;63509;45.250;38.102;2023-01-20T06:07:13;31.15;;;10.98;;
74945;SDS011;63509;45.250;38.102;2023-01-20T06:09:40;34.60;;;13.05;;
74945;SDS011;63509;45.250;38.102;2023-01-20T06:12:06;39.38;;;13.05;;
74945;SDS011;63509;45.250;38.102;2023-01-20T06:14:32;39.45;;;13.27;;
74945;SDS011;63509;45.250;38.102;2023-01-20T06:16:58;33.20;;;12.98;;
74945;SDS011;63509;45.250;38.102;2023-01-20T06:19:24;33.33;;;13.52;;
74945;SDS011;63509;45.250;38.102;2023-01-20T06:21:50;38.35;;;12.93;;
74945;SDS011;63509;45.250;38.102;2023-01-20T06:24:17;40.22;;;12.80;;
74945;SDS011;63509;45.250;38.102;2023-01-20T06:26:43;36.80;;;12.98;;
74945;SDS011;63509;45.250;38.102;2023-01-20T06:29:09;40.63;;;13.18;;
74945;SDS011;63509;45.250;38.102;2023-01-20T06:31:35;30.80;;;11.05;;
74945;SDS011;63509;45.250;38.102;2023-01-20T06:34:02;43.03;;;13.85;;
74945;SDS011;63509;45.250;38.102;2023-01-20T06:36:28;37.03;;;12.65;;
74945;SDS011;63509;45.250;38.102;2023-01-20T06:38:54;80.22;;;15.57;;
74945;SDS011;63509;45.250;38.102;2023-01-20T06:41:20;45.90;;;14.63;;
74945;SDS011;63509;45.250;38.102;2023-01-20T06:43:46;37.00;;;13.95;;
74945;SDS011;63509;45.250;38.102;2023-01-20T06:46:14;34.42;;;12.73;;
74945;SDS011;63509;45.250;38.102;2023-01-20T06:48:41;36.50;;;12.95;;
74945;SDS011;63509;45.250;38.102;2023-01-20T06:51:14;32.78;;;12.25;;
74945;SDS011;63509;45.250;38.102;2023-01-20T06:53:42;32.50;;;12.35;;
74945;SDS011;63509;45.250;38.102;2023-01-20T06:56:10;47.55;;;13.27;;
74945;SDS011;63509;45.250;38.102;2023-01-20T06:58:37;38.35;;;11.77;;
74945;SDS011;63509;45.250;38.102;2023-01-20T07:01:08;39.72;;;13.25;;
74945;SDS011;63509;45.250;38.102;2023-01-20T07:03:37;39.22;;;12.90;;
74945;SDS011;63509;45.250;38.102;2023-01-20T07:06:04;42.53;;;12.88;;
74945;SDS011;63509;45.250;38.102;2023-01-20T07:08:38;38.95;;;14.60;;
74945;SDS011;63509;45.250;38.102;2023-01-20T07:11:04;32.25;;;13.05;;
74945;SDS011;63509;45.250;38.102;2023-01-20T07:13:30;33.95;;;12.02;;
74945;SDS011;63509;45.250;38.102;2023-01-20T07:15:56;43.28;;;13.40;;
74945;SDS011;63509;45.250;38.102;2023-01-20T07:18:22;36.72;;;12.80;;
74945;SDS011;63509;45.250;38.102;2023-01-20T07:20:52;33.55;;;12.65;;
74945;SDS011;63509;45.250;38.102;2023-01-20T07:23:22;35.90;;;12.95;;
74945;SDS011;63509;45.250;38.102;2023-01-20T07:26:04;34.13;;;12.60;;
74945;SDS011;63509;45.250;38.102;2023-01-20T07:28:33;39.13;;;12.85;;
74945;SDS011;63509;45.250;38.102;2023-01-20T07:31:03;29.58;;;13.45;;
74945;SDS011;63509;45.250;38.102;2023-01-20T07:33:30;33.47;;;12.57;;
74945;SDS011;63509;45.250;38.102;2023-01-20T07:35:57;28.17;;;13.98;;
74945;SDS011;63509;45.250;38.102;2023-01-20T07:38:24;35.53;;;12.80;;
74945;SDS011;63509;45.250;38.102;2023-01-20T07:40:50;41.80;;;13.60;;
74945;SDS011;63509;45.250;38.102;2023-01-20T07:43:16;31.58;;;12.88;;
74945;SDS011;63509;45.250;38.102;2023-01-20T07:45:42;31.75;;;12.00;;
74945;SDS011;63509;45.250;38.102;2023-01-20T07:48:08;40.13;;;13.60;;
74945;SDS011;63509;45.250;38.102;2023-01-20T07:50:34;40.28;;;12.68;;
74945;SDS011;63509;45.250;38.102;2023-01-20T07:53:01;28.73;;;11.95;;
74945;SDS011;63509;45.250;38.102;2023-01-20T07:55:27;28.42;;;12.00;;
74945;SDS011;63509;45.250;38.102;2023-01-20T07:57:54;49.28;;;13.30;;
74945;SDS011;63509;45.250;38.102;2023-01-20T08:00:20;33.33;;;12.40;;
74945;SDS011;63509;45.250;38.102;2023-01-20T08:02:46;24.38;;;11.77;;
74945;SDS011;63509;45.250;38.102;2023-01-20T08:05:12;39.95;;;12.63;;
74945;SDS011;63509;45.250;38.102;2023-01-20T08:07:38;34.55;;;12.32;;
74945;SDS011;63509;45.250;38.102;2023-01-20T08:10:04;30.70;;;12.95;;
74945;SDS011;63509;45.250;38.102;2023-01-20T08:12:31;28.77;;;11.55;;
74945;SDS011;63509;45.250;38.102;2023-01-20T08:14:57;31.15;;;12.73;;
74945;SDS011;63509;45.250;38.102;2023-01-20T08:17:24;31.25;;;12.15;;
74945;SDS011;63509;45.250;38.102;2023-01-20T08:19:50;30.02;;;12.65;;
74945;SDS011;63509;45.250;38.102;2023-01-20T08:22:16;31.70;;;13.25;;
74945;SDS011;63509;45.250;38.102;2023-01-20T08:24:42;32.10;;;12.25;;
74945;SDS011;63509;45.250;38.102;2023-01-20T08:27:09;31.77;;;11.68;;
74945;SDS011;63509;45.250;38.102;2023-01-20T08:29:35;36.38;;;14.45;;
74945;SDS011;63509;45.250;38.102;2023-01-20T08:32:01;33.65;;;13.30;;
74945;SDS011;63509;45.250;38.102;2023-01-20T08:34:27;28.58;;;13.00;;
74945;SDS011;63509;45.250;38.102;2023-01-20T08:36:53;31.17;;;13.30;;
74945;SDS011;63509;45.250;38.102;2023-01-20T08:39:22;30.88;;;12.57;;
74945;SDS011;63509;45.250;38.102;2023-01-20T08:41:48;28.73;;;12.75;;
74945;SDS011;63509;45.250;38.102;2023-01-20T08:44:15;34.95;;;12.88;;
74945;SDS011;63509;45.250;38.102;2023-01-20T08:46:43;34.45;;;12.48;;
74945;SDS011;63509;45.250;38.102;2023-01-20T08:49:10;34.75;;;12.27;;
74945;SDS011;63509;45.250;38.102;2023-01-20T08:51:39;32.33;;;13.50;;
74945;SDS011;63509;45.250;38.102;2023-01-20T08:54:06;34.40;;;12.40;;
74945;SDS011;63509;45.250;38.102;2023-01-20T08:56:32;31.08;;;14.45;;
74945;SDS011;63509;45.250;38.102;2023-01-20T08:59:00;35.55;;;12.70;;
74945;SDS011;63509;45.250;38.102;2023-01-20T09:01:28;39.08;;;13.57;;
74945;SDS011;63509;45.250;38.102;2023-01-20T09:03:58;31.17;;;12.15;;
74945;SDS011;63509;45.250;38.102;2023-01-20T09:06:24;32.90;;;13.82;;
74945;SDS011;63509;45.250;38.102;2023-01-20T09:08:51;29.83;;;13.18;;
74945;SDS011;63509;45.250;38.102;2023-01-20T09:11:20;30.35;;;12.52;;
74945;SDS011;63509;45.250;38.102;2023-01-20T09:13:50;30.83;;;12.55;;
74945;SDS011;63509;45.250;38.102;2023-01-20T09:16:17;28.92;;;14.23;;
74945;SDS011;63509;45.250;38.102;2023-01-20T09:18:43;33.88;;;13.90;;
74945;SDS011;63509;45.250;38.102;2023-01-20T09:21:09;37.28;;;12.98;;
74945;SDS011;63509;45.250;38.102;2023-01-20T09:23:38;32.35;;;13.65;;
74945;SDS011;63509;45.250;38.102;2023-01-20T09:26:07;32.85;;;13.13;;
74945;SDS011;63509;45.250;38.102;2023-01-20T09:28:34;30.95;;;13.48;;
74945;SDS011;63509;45.250;38.102;2023-01-20T09:31:01;37.83;;;13.18;;
74945;SDS011;63509;45.250;38.102;2023-01-20T09:33:29;32.67;;;13.48;;
74945;SDS011;63509;45.250;38.102;2023-01-20T09:35:57;47.00;;;15.35;;
74945;SDS011;63509;45.250;38.102;2023-01-20T09:38:24;30.55;;;12.55;;
74945;SDS011;63509;45.250;38.102;2023-01-20T09:41:18;33.90;;;13.63;;
74945;SDS011;63509;45.250;38.102;2023-01-20T09:52:49;32.50;;;13.07;;
74945;SDS011;63509;45.250;38.102;2023-01-20T10:00:38;28.75;;;12.73;;
74945;SDS011;63509;45.250;38.102;2023-01-20T10:03:12;29.90;;;13.00;;
74945;SDS011;63509;45.250;38.102;2023-01-20T10:05:42;31.10;;;12.43;;
74945;SDS011;63509;45.250;38.102;2023-01-20T10:10:51;31.27;;;14.15;;
74945;SDS011;63509;45.250;38.102;2023-01-20T10:13:31;30.77;;;13.10;;
74945;SDS011;63509;45.250;38.102;2023-01-20T10:16:03;29.98;;;12.88;;
74945;SDS011;63509;45.250;38.102;2023-01-20T10:18:47;33.60;;;13.23;;
74945;SDS011;63509;45.250;38.102;2023-01-20T10:21:27;34.08;;;14.70;;
74945;SDS011;63509;45.250;38.102;2023-01-20T10:23:55;38.35;;;16.02;;
74945;SDS011;63509;45.250;38.102;2023-01-20T10:26:31;34.90;;;13.23;;
74945;SDS011;63509;45.250;38.102;2023-01-20T10:29:08;31.50;;;13.30;;
74945;SDS011;63509;45.250;38.102;2023-01-20T10:34:23;37.17;;;13.65;;
74945;SDS011;63509;45.250;38.102;2023-01-20T10:37:02;37.80;;;14.13;;
74945;SDS011;63509;45.250;38.102;2023-01-20T10:39:46;36.25;;;13.38;;
74945;SDS011;63509;45.250;38.102;2023-01-20T10:42:19;36.15;;;13.25;;
74945;SDS011;63509;45.250;38.102;2023-01-20T10:44:46;41.33;;;15.13;;
74945;SDS011;63509;45.250;38.102;2023-01-20T10:47:24;35.08;;;14.70;;
74945;SDS011;63509;45.250;38.102;2023-01-20T10:50:14;31.30;;;14.00;;
74945;SDS011;63509;45.250;38.102;2023-01-20T10:58:36;38.75;;;15.20;;
74945;SDS011;63509;45.250;38.102;2023-01-20T11:01:10;32.95;;;15.88;;
74945;SDS011;63509;45.250;38.102;2023-01-20T11:03:40;43.38;;;14.27;;
74945;SDS011;63509;45.250;38.102;2023-01-20T11:06:26;40.05;;;14.65;;
74945;SDS011;63509;45.250;38.102;2023-01-20T11:08:52;35.78;;;15.50;;
74945;SDS011;63509;45.250;38.102;2023-01-20T11:11:20;39.60;;;16.05;;
74945;SDS011;63509;45.250;38.102;2023-01-20T11:13:49;42.30;;;14.93;;
74945;SDS011;63509;45.250;38.102;2023-01-20T11:16:18;37.25;;;14.50;;
74945;SDS011;63509;45.250;38.102;2023-01-20T11:21:42;31.20;;;14.55;;
74945;SDS011;63509;45.250;38.102;2023-01-20T11:24:54;37.10;;;15.00;;
74945;SDS011;63509;45.250;38.102;2023-01-20T11:27:09;36.08;;;15.38;;
74945;SDS011;63509;45.250;38.102;2023-01-20T11:29:40;36.67;;;14.75;;
74945;SDS011;63509;45.250;38.102;2023-01-20T11:32:26;38.63;;;15.63;;
74945;SDS011;63509;45.250;38.102;2023-01-20T11:34:54;35.53;;;15.95;;
74945;SDS011;63509;45.250;38.102;2023-01-20T11:37:22;37.50;;;14.27;;
74945;SDS011;63509;45.250;38.102;2023-01-20T11:40:00;35.63;;;14.35;;
74945;SDS011;63509;45.250;38.102;2023-01-20T11:42:43;41.47;;;15.80;;
74945;SDS011;63509;45.250;38.102;2023-01-20T11:50:39;39.22;;;15.20;;
74945;SDS011;63509;45.250;38.102;2023-01-20T11:53:12;42.60;;;14.63;;
74945;SDS011;63509;45.250;38.102;2023-01-20T11:55:47;35.75;;;14.32;;
74945;SDS011;63509;45.250;38.102;2023-01-20T11:58:18;36.33;;;15.45;;
74945;SDS011;63509;45.250;38.102;2023-01-20T12:03:35;41.25;;;17.08;;
74945;SDS011;63509;45.250;38.102;2023-01-20T12:11:27;36.72;;;15.45;;
74945;SDS011;63509;45.250;38.102;2023-01-20T12:19:17;41.13;;;13.40;;
74945;SDS011;63509;45.250;38.102;2023-01-20T12:24:17;35.25;;;14.35;;
74945;SDS011;63509;45.250;38.102;2023-01-20T12:26:50;37.10;;;15.48;;
74945;SDS011;63509;45.250;38.102;2023-01-20T12:32:10;33.40;;;13.52;;
74945;SDS011;63509;45.250;38.102;2023-01-20T12:34:35;41.22;;;14.40;;
74945;SDS011;63509;45.250;38.102;2023-01-20T12:37:06;30.67;;;11.88;;
74945;SDS011;63509;45.250;38.102;2023-01-20T12:40:00;35.92;;;13.07;;
74945;SDS011;63509;45.250;38.102;2023-01-20T12:45:38;28.30;;;11.50;;
74945;SDS011;63509;45.250;38.102;2023-01-20T12:48:37;23.20;;;11.68;;
74945;SDS011;63509;45.250;38.102;2023-01-20T12:51:37;26.38;;;11.80;;
74945;SDS011;63509;45.250;38.102;2023-01-20T12:57:04;23.92;;;10.73;;
74945;SDS011;63509;45.250;38.102;2023-01-20T13:03:06;29.15;;;12.35;;
74945;SDS011;63509;45.250;38.102;2023-01-20T13:06:09;26.75;;;11.55;;
74945;SDS011;63509;45.250;38.102;2023-01-20T13:08:54;40.42;;;12.40;;
74945;SDS011;63509;45.250;38.102;2023-01-20T13:14:22;38.45;;;13.05;;
74945;SDS011;63509;45.250;38.102;2023-01-20T13:19:38;34.08;;;13.70;;
74945;SDS011;63509;45.250;38.102;2023-01-20T13:22:09;36.35;;;13.35;;
74945;SDS011;63509;45.250;38.102;2023-01-20T13:24:47;35.83;;;11.80;;
74945;SDS011;63509;45.250;38.102;2023-01-20T13:27:34;40.20;;;12.35;;
74945;SDS011;63509;45.250;38.102;2023-01-20T13:30:05;33.78;;;11.25;;
74945;SDS011;63509;45.250;38.102;2023-01-20T13:32:41;36.33;;;12.32;;
74945;SDS011;63509;45.250;38.102;2023-01-20T13:37:50;58.53;;;14.75;;
74945;SDS011;63509;45.250;38.102;2023-01-20T13:41:03;28.30;;;12.50;;
74945;SDS011;63509;45.250;38.102;2023-01-20T13:43:31;30.55;;;12.35;;
74945;SDS011;63509;45.250;38.102;2023-01-20T13:48:28;47.95;;;14.68;;
74945;SDS011;63509;45.250;38.102;2023-01-20T13:53:43;55.00;;;16.55;;
74945;SDS011;63509;45.250;38.102;2023-01-20T13:56:26;42.58;;;15.15;;
74945;SDS011;63509;45.250;38.102;2023-01-20T13:58:54;55.15;;;16.10;;
74945;SDS011;63509;45.250;38.102;2023-01-20T14:01:24;52.50;;;15.32;;
74945;SDS011;63509;45.250;38.102;2023-01-20T14:04:05;55.10;;;16.65;;
74945;SDS011;63509;45.250;38.102;2023-01-20T14:06:48;54.95;;;16.08;;
74945;SDS011;63509;45.250;38.102;2023-01-20T14:09:22;57.33;;;16.48;;
74945;SDS011;63509;45.250;38.102;2023-01-20T14:11:50;50.83;;;15.77;;
74945;SDS011;63509;45.250;38.102;2023-01-20T14:14:19;36.45;;;14.38;;
74945;SDS011;63509;45.250;38.102;2023-01-20T14:19:32;47.08;;;14.93;;
74945;SDS011;63509;45.250;38.102;2023-01-20T14:22:14;47.15;;;15.40;;
74945;SDS011;63509;45.250;38.102;2023-01-20T14:24:43;55.88;;;15.20;;
74945;SDS011;63509;45.250;38.102;2023-01-20T14:29:41;52.38;;;15.50;;
74945;SDS011;63509;45.250;38.102;2023-01-20T14:32:17;42.50;;;12.43;;
74945;SDS011;63509;45.250;38.102;2023-01-20T14:34:46;35.60;;;14.00;;
74945;SDS011;63509;45.250;38.102;2023-01-20T14:39:56;29.13;;;9.00;;
74945;SDS011;63509;45.250;38.102;2023-01-20T14:42:25;42.20;;;10.05;;
74945;SDS011;63509;45.250;38.102;2023-01-20T14:44:53;34.92;;;9.05;;
74945;SDS011;63509;45.250;38.102;2023-01-20T14:47:21;41.55;;;10.52;;
74945;SDS011;63509;45.250;38.102;2023-01-20T14:49:50;34.95;;;8.80;;
74945;SDS011;63509;45.250;38.102;2023-01-20T14:52:27;25.52;;;8.70;;
74945;SDS011;63509;45.250;38.102;2023-01-20T14:54:55;34.45;;;9.73;;
74945;SDS011;63509;45.250;38.102;2023-01-20T14:57:23;28.92;;;8.57;;
74945;SDS011;63509;45.250;38.102;2023-01-20T15:03:22;29.48;;;9.85;;
74945;SDS011;63509;45.250;38.102;2023-01-20T15:05:40;24.77;;;9.55;;
74945;SDS011;63509;45.250;38.102;2023-01-20T15:21:49;24.08;;;8.55;;
74945;SDS011;63509;45.250;38.102;2023-01-20T15:24:24;18.92;;;7.78;;
74945;SDS011;63509;45.250;38.102;2023-01-20T15:26:55;23.08;;;8.10;;
74945;SDS011;63509;45.250;38.102;2023-01-20T15:29:26;29.90;;;8.32;;
74945;SDS011;63509;45.250;38.102;2023-01-20T15:31:55;62.80;;;8.93;;
74945;SDS011;63509;45.250;38.102;2023-01-20T15:34:22;35.50;;;7.95;;
74945;SDS011;63509;45.250;38.102;2023-01-20T15:36:50;22.13;;;8.02;;
74945;SDS011;63509;45.250;38.102;2023-01-20T15:39:18;27.83;;;7.60;;
74945;SDS011;63509;45.250;38.102;2023-01-20T15:41:46;17.38;;;6.80;;
74945;SDS011;63509;45.250;38.102;2023-01-20T15:44:13;14.90;;;6.57;;
74945;SDS011;63509;45.250;38.102;2023-01-20T15:46:40;14.90;;;6.55;;
74945;SDS011;63509;45.250;38.102;2023-01-20T15:49:09;15.52;;;6.45;;
74945;SDS011;63509;45.250;38.102;2023-01-20T15:51:36;22.58;;;8.45;;
74945;SDS011;63509;45.250;38.102;2023-01-20T15:54:03;27.92;;;7.95;;
74945;SDS011;63509;45.250;38.102;2023-01-20T15:56:31;17.50;;;7.18;;
74945;SDS011;63509;45.250;38.102;2023-01-20T15:58:59;17.20;;;6.80;;
74945;SDS011;63509;45.250;38.102;2023-01-20T16:01:26;18.70;;;6.70;;
74945;SDS011;63509;45.250;38.102;2023-01-20T16:03:54;19.52;;;6.65;;
74945;SDS011;63509;45.250;38.102;2023-01-20T16:06:21;18.35;;;7.60;;
74945;SDS011;63509;45.250;38.102;2023-01-20T16:08:52;19.67;;;7.53;;
74945;SDS011;63509;45.250;38.102;2023-01-20T16:11:18;13.88;;;7.65;;
74945;SDS011;63509;45.250;38.102;2023-01-20T16:13:44;15.85;;;6.63;;
74945;SDS011;63509;45.250;38.102;2023-01-20T16:16:14;16.38;;;7.07;;
74945;SDS011;63509;45.250;38.102;2023-01-20T16:18:44;17.73;;;7.28;;
74945;SDS011;63509;45.250;38.102;2023-01-20T16:21:14;18.40;;;6.30;;
74945;SDS011;63509;45.250;38.102;2023-01-20T16:23:42;18.88;;;6.32;;
74945;SDS011;63509;45.250;38.102;2023-01-20T16:26:19;18.67;;;6.88;;
74945;SDS011;63509;45.250;38.102;2023-01-20T16:28:47;24.00;;;7.90;;
74945;SDS011;63509;45.250;38.102;2023-01-20T16:31:18;22.40;;;7.03;;
74945;SDS011;63509;45.250;38.102;2023-01-20T16:33:45;17.88;;;8.27;;
74945;SDS011;63509;45.250;38.102;2023-01-20T16:36:16;20.05;;;7.55;;
74945;SDS011;63509;45.250;38.102;2023-01-20T16:38:44;16.58;;;7.22;;
74945;SDS011;63509;45.250;38.102;2023-01-20T16:41:14;16.50;;;7.65;;